createdAt,value
2023-03-12T00:02:21.491Z,6.62
2023-03-12T00:04:54.180Z,6.59
2023-03-12T00:07:26.952Z,6.77
2023-03-12T00:09:59.619Z,6.69
2023-03-12T00:12:32.361Z,6.58
2023-03-12T00:15:07.220Z,6.57
2023-03-12T00:17:39.951Z,6.53
2023-03-12T00:20:13.411Z,6.53
2023-03-12T00:22:46.113Z,6.60
2023-03-12T00:25:19.097Z,6.67
2023-03-12T00:27:51.778Z,6.62
2023-03-12T00:30:28.338Z,6.60
2023-03-12T00:33:01.086Z,6.58
2023-03-12T00:35:34.063Z,6.63
2023-03-12T00:38:06.663Z,6.71
2023-03-12T00:40:39.783Z,6.57
2023-03-12T00:43:12.572Z,6.62
2023-03-12T00:45:47.135Z,6.61
2023-03-12T00:48:19.944Z,6.61
2023-03-12T00:50:52.479Z,6.61
2023-03-12T00:53:25.481Z,6.67
2023-03-12T00:55:58.315Z,6.59
2023-03-12T00:58:30.993Z,6.54
2023-03-12T01:01:05.185Z,6.55
2023-03-12T01:03:37.983Z,6.52
2023-03-12T01:06:10.709Z,6.54
2023-03-12T01:08:43.287Z,6.58
2023-03-12T01:11:16.556Z,6.57
2023-03-12T01:13:49.516Z,6.57
2023-03-12T01:16:28.088Z,6.55
2023-03-12T01:19:01.746Z,6.48
2023-03-12T01:21:34.293Z,6.50
2023-03-12T01:24:07.862Z,6.52
2023-03-12T01:26:40.599Z,6.49
2023-03-12T01:29:13.205Z,6.48
2023-03-12T01:31:47.229Z,6.54
2023-03-12T01:34:20.050Z,6.48
2023-03-12T01:36:52.627Z,6.51
2023-03-12T01:39:25.750Z,6.51
2023-03-12T01:41:58.381Z,6.44
2023-03-12T01:44:31.206Z,6.50
2023-03-12T01:47:05.239Z,6.49
2023-03-12T01:49:38.237Z,6.52
2023-03-12T01:52:12.213Z,6.50
2023-03-12T01:54:56.504Z,6.45
2023-03-12T01:57:32.608Z,6.51
2023-03-12T02:00:08.896Z,6.49
2023-03-12T02:02:50.394Z,6.48
2023-03-12T02:05:30.706Z,6.46
2023-03-12T02:08:03.697Z,6.45
2023-03-12T02:10:36.530Z,6.54
2023-03-12T02:13:09.441Z,6.46
2023-03-12T02:15:42.143Z,6.53
2023-03-12T02:18:18.003Z,6.44
2023-03-12T02:20:54.090Z,6.50
2023-03-12T02:23:29.156Z,6.46
2023-03-12T02:26:04.647Z,6.46
2023-03-12T02:28:43.776Z,6.45
2023-03-12T02:31:19.036Z,6.46
2023-03-12T02:33:52.949Z,6.52
2023-03-12T02:36:25.897Z,6.48
2023-03-12T02:38:58.816Z,6.43
2023-03-12T02:41:35.078Z,6.41
2023-03-12T02:44:11.275Z,6.46
2023-03-12T02:46:45.663Z,6.53
2023-03-12T02:49:19.898Z,6.44
2023-03-12T02:51:52.816Z,6.41
2023-03-12T02:54:26.231Z,6.48
2023-03-12T02:57:00.275Z,6.47
2023-03-12T02:59:35.355Z,6.44
2023-03-12T03:02:12.625Z,6.51
2023-03-12T03:04:45.473Z,6.46
2023-03-12T03:07:18.315Z,6.49
2023-03-12T03:09:50.931Z,6.48
2023-03-12T03:12:25.069Z,6.47
2023-03-12T03:14:58.011Z,6.49
2023-03-12T03:17:30.783Z,6.51
2023-03-12T03:20:06.050Z,6.51
2023-03-12T03:22:39.359Z,6.57
2023-03-12T03:25:12.188Z,6.49
2023-03-12T03:27:46.336Z,6.47
2023-03-12T03:30:19.237Z,6.43
2023-03-12T03:32:54.286Z,6.46
2023-03-12T03:35:27.468Z,6.48
2023-03-12T03:38:00.264Z,6.56
2023-03-12T03:40:32.981Z,6.44
2023-03-12T03:43:07.108Z,6.42
2023-03-12T03:45:39.980Z,6.37
2023-03-12T03:48:12.962Z,6.40
2023-03-12T03:50:45.661Z,6.50
2023-03-12T03:53:19.642Z,6.42
2023-03-12T03:55:52.370Z,6.50
2023-03-12T03:58:26.397Z,6.38
2023-03-12T04:00:58.952Z,6.50
2023-03-12T04:03:31.862Z,6.54
2023-03-12T04:06:05.899Z,6.53
2023-03-12T04:08:39.741Z,6.53
2023-03-12T04:11:16.800Z,6.47
2023-03-12T04:13:51.461Z,6.52
2023-03-12T04:16:27.654Z,6.51
2023-03-12T04:19:01.271Z,6.53
2023-03-12T04:21:34.253Z,6.50
2023-03-12T04:24:07.889Z,6.49
2023-03-12T04:26:41.278Z,6.38
2023-03-12T04:29:16.013Z,6.46
2023-03-12T04:31:48.924Z,6.51
2023-03-12T04:34:22.014Z,6.49
2023-03-12T04:36:56.596Z,6.53
2023-03-12T04:39:29.619Z,6.45
2023-03-12T04:42:03.124Z,6.49
2023-03-12T04:44:40.966Z,6.53
2023-03-12T04:47:14.079Z,6.47
2023-03-12T04:49:47.101Z,6.52
2023-03-12T04:52:20.153Z,6.51
2023-03-12T04:54:53.307Z,6.54
2023-03-12T04:57:26.480Z,6.56
2023-03-12T05:00:00.707Z,6.51
2023-03-12T05:02:33.578Z,6.46
2023-03-12T05:05:07.630Z,6.48
2023-03-12T05:07:41.459Z,6.42
2023-03-12T05:10:14.601Z,6.54
2023-03-12T05:12:47.244Z,6.51
2023-03-12T05:15:21.424Z,6.56
2023-03-12T05:17:54.904Z,6.47
2023-03-12T05:20:27.869Z,6.49
2023-03-12T05:23:00.561Z,6.50
2023-03-12T05:25:33.432Z,6.54
2023-03-12T05:28:06.019Z,6.61
2023-03-12T05:30:41.595Z,6.50
2023-03-12T05:33:14.341Z,6.46
2023-03-12T05:35:47.141Z,6.49
2023-03-12T05:38:20.295Z,6.40
2023-03-12T05:40:54.446Z,6.51
2023-03-12T05:43:27.641Z,6.55
2023-03-12T05:46:02.423Z,6.50
2023-03-12T05:48:35.180Z,6.54
2023-03-12T05:51:08.853Z,6.55
2023-03-12T05:53:41.812Z,6.56
2023-03-12T05:56:15.924Z,6.55
2023-03-12T05:58:49.133Z,6.44
2023-03-12T06:01:26.886Z,6.48
2023-03-12T06:04:01.257Z,6.48
2023-03-12T06:06:34.609Z,6.53
2023-03-12T06:09:07.302Z,6.52
2023-03-12T06:11:40.180Z,6.50
2023-03-12T06:14:12.967Z,6.51
2023-03-12T06:16:47.276Z,6.58
2023-03-12T06:19:19.900Z,6.54
2023-03-12T06:21:54.989Z,6.49
2023-03-12T06:24:27.915Z,6.49
2023-03-12T06:27:06.191Z,6.51
2023-03-12T06:29:38.760Z,6.50
2023-03-12T06:32:12.942Z,6.49
2023-03-12T06:34:45.990Z,6.52
2023-03-12T06:37:18.928Z,6.54
2023-03-12T06:39:52.259Z,6.48
2023-03-12T06:42:26.656Z,6.59
2023-03-12T06:44:59.216Z,6.61
2023-03-12T06:47:33.219Z,6.61
2023-03-12T06:50:06.229Z,6.61
2023-03-12T06:52:40.540Z,6.57
2023-03-12T06:55:13.247Z,6.66
2023-03-12T06:57:46.111Z,6.67
2023-03-12T07:00:19.370Z,6.60
2023-03-12T07:02:53.507Z,6.69
2023-03-12T07:05:30.232Z,6.66
2023-03-12T07:08:03.137Z,6.66
2023-03-12T07:10:39.229Z,6.62
2023-03-12T07:13:11.873Z,6.69
2023-03-12T07:15:45.991Z,6.68
2023-03-12T07:18:20.108Z,6.68
2023-03-12T07:20:52.918Z,6.77
2023-03-12T07:23:25.836Z,6.70
2023-03-12T07:25:58.759Z,6.75
2023-03-12T07:28:31.611Z,6.78
2023-03-12T07:31:05.229Z,6.76
2023-03-12T07:33:39.377Z,6.78
2023-03-12T07:36:12.270Z,6.81
2023-03-12T07:38:44.864Z,6.82
2023-03-12T07:41:17.502Z,6.94
2023-03-12T07:43:50.160Z,6.96
2023-03-12T07:46:22.745Z,7.07
2023-03-12T07:48:56.809Z,7.04
2023-03-12T07:51:29.531Z,7.18
2023-03-12T07:54:02.183Z,7.14
2023-03-12T07:56:35.825Z,7.15
2023-03-12T07:59:09.059Z,7.24
2023-03-12T08:01:43.983Z,7.30
2023-03-12T08:04:19.064Z,7.30
2023-03-12T08:06:51.690Z,7.33
2023-03-12T08:09:24.451Z,7.30
2023-03-12T08:12:00.263Z,7.34
2023-03-12T08:14:33.007Z,7.37
2023-03-12T08:17:05.789Z,7.43
2023-03-12T08:19:42.193Z,7.54
2023-03-12T08:22:14.795Z,7.59
2023-03-12T08:24:47.700Z,7.61
2023-03-12T08:27:20.237Z,7.69
2023-03-12T08:29:52.966Z,7.78
2023-03-12T08:32:25.622Z,7.77
2023-03-12T08:34:59.756Z,7.79
2023-03-12T08:37:32.927Z,7.82
2023-03-12T08:40:13.003Z,8.02
2023-03-12T08:42:46.242Z,8.02
2023-03-12T08:45:21.878Z,8.09
2023-03-12T08:47:54.503Z,8.13
2023-03-12T08:50:29.555Z,8.22
2023-03-12T08:53:02.337Z,8.37
2023-03-12T08:55:39.168Z,8.51
2023-03-12T08:58:11.930Z,8.57
2023-03-12T09:00:52.267Z,8.67
2023-03-12T09:03:25.481Z,8.74
2023-03-12T09:06:05.193Z,8.83
2023-03-12T09:08:37.791Z,8.93
2023-03-12T09:11:11.086Z,8.98
2023-03-12T09:14:16.871Z,9.20
2023-03-12T09:16:37.071Z,9.11
2023-03-12T09:19:09.777Z,9.11
2023-03-12T09:21:43.913Z,9.28
2023-03-12T09:24:16.756Z,9.48
2023-03-12T09:26:49.407Z,9.40
2023-03-12T09:29:22.328Z,9.46
2023-03-12T09:31:55.403Z,9.54
2023-03-12T09:34:28.042Z,9.61
2023-03-12T09:37:02.299Z,9.74
2023-03-12T09:39:35.387Z,9.83
2023-03-12T09:42:16.640Z,9.82
2023-03-12T09:44:49.977Z,9.86
2023-03-12T09:47:26.453Z,9.97
2023-03-12T09:50:02.456Z,9.95
2023-03-12T09:52:39.690Z,9.98
2023-03-12T09:55:14.953Z,10.10
2023-03-12T09:57:49.138Z,10.18
2023-03-12T10:00:22.754Z,10.22
2023-03-12T10:03:10.322Z,10.27
2023-03-12T10:05:46.938Z,10.37
2023-03-12T10:08:28.866Z,10.37
2023-03-12T10:11:09.432Z,10.50
2023-03-12T10:13:58.397Z,10.58
2023-03-12T10:16:36.636Z,10.61
2023-03-12T10:19:22.602Z,10.71
2023-03-12T10:22:02.105Z,10.67
2023-03-12T10:24:42.753Z,10.68
2023-03-12T10:27:16.660Z,10.72
2023-03-12T10:29:51.341Z,10.77
2023-03-12T10:32:27.567Z,10.78
2023-03-12T10:35:01.708Z,10.81
2023-03-12T10:37:38.527Z,10.84
2023-03-12T10:40:15.500Z,10.91
2023-03-12T10:42:48.489Z,11.01
2023-03-12T10:45:24.975Z,10.88
2023-03-12T10:48:00.120Z,11.02
2023-03-12T10:50:33.400Z,11.02
2023-03-12T10:53:20.263Z,10.95
2023-03-12T10:56:01.862Z,11.02
2023-03-12T10:58:36.524Z,11.08
2023-03-12T11:01:21.017Z,11.08
2023-03-12T11:03:54.481Z,11.15
2023-03-12T11:06:28.768Z,11.16
2023-03-12T11:09:21.656Z,11.30
2023-03-12T11:11:57.523Z,11.30
2023-03-12T11:14:31.374Z,11.27
2023-03-12T11:17:22.155Z,11.39
2023-03-12T11:19:54.854Z,11.45
2023-03-12T11:22:29.257Z,11.54
2023-03-12T11:25:03.033Z,11.54
2023-03-12T11:27:41.793Z,11.57
2023-03-12T11:30:18.031Z,11.59
2023-03-12T11:32:51.862Z,11.54
2023-03-12T11:35:33.922Z,11.64
2023-03-12T11:38:15.405Z,11.62
2023-03-12T11:40:58.391Z,11.65
2023-03-12T11:43:43.578Z,11.76
2023-03-12T11:46:28.045Z,11.70
2023-03-12T11:49:08.721Z,11.79
2023-03-12T11:51:45.828Z,11.92
2023-03-12T11:54:39.714Z,12.01
2023-03-12T11:57:17.123Z,12.11
2023-03-12T12:00:00.491Z,12.20
2023-03-12T12:02:54.514Z,12.26
2023-03-12T12:05:32.809Z,12.37
2023-03-12T12:08:17.132Z,12.29
2023-03-12T12:10:53.587Z,12.45
2023-03-12T12:13:31.585Z,12.57
2023-03-12T12:16:11.741Z,12.61
2023-03-12T12:18:52.469Z,12.74
2023-03-12T12:21:34.157Z,12.71
2023-03-12T12:24:13.052Z,12.80
2023-03-12T12:26:50.819Z,12.73
2023-03-12T12:29:29.734Z,12.81
2023-03-12T12:32:05.556Z,12.77
2023-03-12T12:34:45.948Z,12.91
2023-03-12T12:37:23.079Z,12.82
2023-03-12T12:40:01.180Z,12.84
2023-03-12T12:42:36.800Z,12.91
2023-03-12T12:45:12.639Z,12.98
2023-03-12T12:47:48.896Z,13.02
2023-03-12T12:50:23.393Z,12.91
2023-03-12T12:52:59.129Z,13.00
2023-03-12T12:55:34.745Z,13.08
2023-03-12T12:58:13.230Z,13.05
2023-03-12T13:00:48.317Z,12.93
2023-03-12T13:03:23.869Z,12.90
2023-03-12T13:05:57.897Z,12.92
2023-03-12T13:08:36.273Z,12.88
2023-03-12T13:11:24.243Z,13.00
2023-03-12T13:14:21.369Z,13.01
2023-03-12T13:17:07.651Z,13.07
2023-03-12T13:19:44.948Z,12.78
2023-03-12T13:22:36.917Z,12.81
2023-03-12T13:25:19.064Z,13.28
2023-03-12T13:27:58.413Z,13.26
2023-03-12T13:30:47.755Z,13.27
2023-03-12T13:33:21.822Z,13.21
2023-03-12T13:36:06.528Z,13.33
2023-03-12T13:39:21.534Z,14.07
2023-03-12T13:41:56.297Z,13.76
2023-03-12T13:44:38.617Z,13.99
2023-03-12T13:47:23.756Z,13.87
2023-03-12T13:50:00.840Z,13.94
2023-03-12T13:52:39.102Z,14.01
2023-03-12T13:55:23.381Z,13.91
2023-03-12T13:57:58.747Z,14.13
2023-03-12T14:00:37.453Z,14.12
2023-03-12T14:03:17.369Z,14.15
2023-03-12T14:05:54.342Z,14.63
2023-03-12T14:08:54.481Z,14.90
2023-03-12T14:11:45.639Z,14.93
2023-03-12T14:14:41.642Z,14.95
2023-03-12T14:17:18.591Z,14.94
2023-03-12T14:19:58.255Z,14.87
2023-03-12T14:22:34.088Z,14.75
2023-03-12T14:25:15.707Z,14.84
2023-03-12T14:27:50.128Z,14.85
2023-03-12T14:30:26.198Z,14.71
2023-03-12T14:33:03.688Z,14.72
2023-03-12T14:35:42.368Z,14.76
2023-03-12T14:38:19.037Z,14.67
2023-03-12T14:40:56.618Z,14.59
2023-03-12T14:43:33.142Z,14.61
2023-03-12T14:46:14.865Z,14.60
2023-03-12T14:48:49.740Z,14.64
2023-03-12T14:51:25.340Z,14.58
2023-03-12T14:54:04.272Z,14.58
2023-03-12T14:56:37.155Z,14.52
2023-03-12T14:59:24.034Z,14.40
2023-03-12T15:02:01.574Z,14.43
2023-03-12T15:04:36.250Z,14.28
2023-03-12T15:07:12.883Z,14.34
2023-03-12T15:09:49.895Z,14.26
2023-03-12T15:12:25.067Z,14.27
2023-03-12T15:15:07.123Z,14.31
2023-03-12T15:17:40.011Z,14.14
2023-03-12T15:20:16.298Z,14.21
2023-03-12T15:22:49.975Z,14.13
2023-03-12T15:25:23.973Z,14.10
2023-03-12T15:28:06.063Z,14.05
2023-03-12T15:30:41.288Z,14.10
2023-03-12T15:33:25.771Z,14.00
2023-03-12T15:36:02.373Z,13.88
2023-03-12T15:38:38.344Z,14.03
2023-03-12T15:41:23.127Z,14.01
2023-03-12T15:43:58.607Z,14.05
2023-03-12T15:46:34.065Z,14.01
2023-03-12T15:49:07.341Z,13.99
2023-03-12T15:51:40.582Z,13.91
2023-03-12T15:54:27.310Z,13.90
2023-03-12T15:57:22.551Z,13.88
2023-03-12T16:00:17.596Z,13.86
2023-03-12T16:02:54.622Z,13.78
2023-03-12T16:05:31.888Z,13.60
2023-03-12T16:08:16.385Z,13.73
2023-03-12T16:10:50.673Z,13.68
2023-03-12T16:13:29.983Z,13.65
2023-03-12T16:16:05.693Z,13.59
2023-03-12T16:18:40.271Z,13.59
2023-03-12T16:21:13.460Z,13.47
2023-03-12T16:23:46.244Z,13.55
2023-03-12T16:26:19.716Z,13.50
2023-03-12T16:28:52.677Z,13.48
2023-03-12T16:31:25.573Z,13.38
2023-03-12T16:34:00.124Z,13.32
2023-03-12T16:36:32.884Z,13.28
2023-03-12T16:39:06.030Z,13.28
2023-03-12T16:41:39.607Z,13.25
2023-03-12T16:44:17.088Z,13.05
2023-03-12T16:46:50.267Z,13.16
2023-03-12T16:49:24.568Z,13.07
2023-03-12T16:51:57.709Z,13.14
2023-03-12T16:54:30.374Z,12.96
2023-03-12T16:57:03.262Z,13.06
2023-03-12T16:59:38.143Z,13.08
2023-03-12T17:02:16.605Z,12.92
2023-03-12T17:04:51.110Z,12.87
2023-03-12T17:07:24.109Z,12.73
2023-03-12T17:09:57.390Z,12.80
2023-03-12T17:12:32.223Z,12.76
2023-03-12T17:15:09.057Z,12.70
2023-03-12T17:17:42.037Z,12.77
2023-03-12T17:20:18.032Z,12.79
2023-03-12T17:22:51.350Z,12.87
2023-03-12T17:25:27.217Z,12.80
2023-03-12T17:28:00.469Z,12.63
2023-03-12T17:30:34.427Z,12.71
2023-03-12T17:33:10.450Z,12.60
2023-03-12T17:35:47.002Z,12.65
2023-03-12T17:38:20.520Z,12.33
2023-03-12T17:40:53.339Z,12.47
2023-03-12T17:43:26.374Z,12.60
2023-03-12T17:45:59.039Z,12.42
2023-03-12T17:48:32.160Z,12.38
2023-03-12T17:51:08.600Z,12.37
2023-03-12T17:53:42.183Z,12.50
2023-03-12T17:56:17.892Z,12.29
2023-03-12T17:58:50.877Z,12.38
2023-03-12T18:01:23.472Z,12.30
2023-03-12T18:03:56.332Z,12.22
2023-03-12T18:06:30.444Z,12.20
2023-03-12T18:09:04.013Z,12.29
2023-03-12T18:11:36.982Z,12.37
2023-03-12T18:14:09.716Z,12.41
2023-03-12T18:16:42.491Z,12.40
2023-03-12T18:19:16.079Z,12.25
2023-03-12T18:21:50.167Z,12.18
2023-03-12T18:24:23.384Z,12.23
2023-03-12T18:26:56.360Z,12.32
2023-03-12T18:29:29.031Z,12.38
2023-03-12T18:32:01.829Z,12.31
2023-03-12T18:34:34.572Z,12.23
2023-03-12T18:37:08.693Z,12.39
2023-03-12T18:39:41.686Z,12.47
2023-03-12T18:42:14.373Z,12.45
2023-03-12T18:44:47.272Z,12.37
2023-03-12T18:47:20.325Z,12.61
2023-03-12T18:49:55.198Z,12.38
2023-03-12T18:52:29.264Z,12.48
2023-03-12T18:55:02.215Z,12.53
2023-03-12T18:57:34.892Z,12.23
2023-03-12T19:00:13.272Z,12.28
2023-03-12T19:02:48.093Z,12.44
2023-03-12T19:05:21.606Z,12.33
2023-03-12T19:07:55.893Z,12.42
2023-03-12T19:10:29.005Z,12.42
2023-03-12T19:13:02.215Z,12.47
2023-03-12T19:15:38.159Z,12.35
2023-03-12T19:18:10.970Z,12.23
2023-03-12T19:20:43.722Z,12.07
2023-03-12T19:23:19.998Z,12.08
2023-03-12T19:25:53.100Z,12.12
2023-03-12T19:28:28.487Z,12.10
2023-03-12T19:31:01.853Z,12.18
2023-03-12T19:33:35.050Z,11.98
2023-03-12T20:10:39.469Z,12.03
2023-03-12T20:39:07.731Z,11.78
2023-03-12T20:41:42.719Z,11.65
2023-03-12T20:44:15.946Z,11.71
2023-03-12T20:46:48.721Z,11.83
2023-03-12T20:49:21.564Z,11.85
2023-03-12T20:51:54.231Z,11.83
2023-03-12T20:54:28.578Z,11.76
2023-03-12T20:57:01.376Z,11.85
2023-03-12T20:59:34.047Z,11.71
2023-03-12T21:02:06.830Z,11.88
2023-03-12T21:04:45.424Z,11.72
2023-03-12T21:07:23.355Z,11.60
2023-03-12T21:32:23.413Z,11.51
2023-03-12T21:41:13.339Z,11.52
2023-03-12T21:46:35.825Z,11.58
2023-03-12T22:17:17.555Z,11.38
2023-03-12T22:19:51.768Z,11.41
2023-03-12T22:22:24.587Z,11.29
2023-03-12T22:24:57.257Z,11.41
2023-03-12T22:27:30.160Z,11.38
2023-03-12T22:30:03.328Z,11.32
2023-03-12T22:32:37.672Z,11.48
2023-03-12T22:35:10.811Z,11.40
2023-03-12T22:37:45.260Z,11.39
2023-03-12T22:40:18.189Z,11.41
2023-03-12T22:42:51.151Z,11.52
2023-03-12T22:45:24.152Z,11.49
2023-03-12T22:47:58.417Z,11.57
2023-03-12T22:50:31.386Z,11.50
2023-03-12T22:53:03.982Z,11.54
2023-03-12T22:55:36.804Z,11.56
2023-03-12T22:58:10.434Z,11.54
2023-03-12T23:00:43.264Z,11.57
2023-03-12T23:03:17.455Z,11.51
2023-03-12T23:05:50.140Z,11.31
2023-03-12T23:08:23.606Z,11.32
2023-03-12T23:10:58.813Z,11.38
2023-03-12T23:13:34.589Z,11.26
2023-03-12T23:16:09.787Z,11.27
2023-03-12T23:18:45.876Z,11.35
2023-03-12T23:21:21.340Z,11.38
2023-03-12T23:23:54.341Z,11.30
2023-03-12T23:26:30.763Z,11.34
2023-03-12T23:29:03.915Z,11.23
2023-03-12T23:31:36.643Z,11.43
2023-03-12T23:34:11.429Z,11.27
2023-03-12T23:36:46.015Z,11.42
2023-03-12T23:39:18.915Z,11.51
2023-03-12T23:41:51.545Z,11.48
2023-03-12T23:44:24.383Z,11.57
2023-03-12T23:46:57.190Z,11.53
2023-03-12T23:49:31.301Z,11.51
2023-03-12T23:52:04.329Z,11.45
2023-03-12T23:54:37.230Z,11.30
2023-03-12T23:57:09.982Z,11.37
2023-03-12T23:59:42.812Z,11.31
